Whitleys Peak, Santa Catalina Island Weather observations

Data are for 10 minute period ending at time listed.
 Day   Time   Solar   Ave.   Ave.  Ave.  Vector    Max.   Stn.    Total
  of    of     Rad.   Air    Rel.  Wind   Wind     Wind   Baro.  Precip.
Year   Day            Temp.  Hum.  Speed  Dir.     Gust   Pres.         
2016   (PST)   W/m2    F      %     mph   deg.      mph    mb.     in.  
------------------------------------------------------------------------
 205   16:10  384.0    75   68.6     3    322.3     5.4    999.0   0.00  
 205   16:20  340.0    73   72.4     3    338.3     5.4    999.0   0.00  
 205   16:30  307.0    74   71.9     3    350.1     5.4    999.0   0.00  
 205   16:40  267.0    73   69.6     4     30.9     5.4    999.0   0.00  
 205   16:50  243.0    74   69.4     4     78.4     4.8    999.0   0.00  
 205   17:00  234.0    73   74.1     3     67.0     4.2    999.0   0.00  
 205   17:10  208.0    72   76.0     3     13.3     4.8    999.0   0.00  
 205   17:20  179.0    70   80.3     2    314.3     5.4    999.0   0.00  
 205   17:30  155.0    72   74.2     1    310.0     3.6    999.0   0.00  
 205   17:40  122.0    73   70.4     1    118.4     3.0    999.0   0.00  
 205   17:50  101.0    73   68.1     4    105.7     5.4    999.0   0.00  
 205   18:00   80.0    72   72.1     4    114.2     5.4    999.0   0.00  
 205   18:10   65.0    71   74.7     3    105.5     4.8    999.0   0.00  
 205   18:20   50.0    71   75.2     4    105.4     6.0    999.0   0.00  
 205   18:30   26.0    71   76.8     5    114.7     6.0    999.0   0.00  
 205   18:40   16.0    70   78.3     5    117.7     6.0    999.0   0.00  
 205   18:50    7.0    69   81.0     4    116.2     5.4    999.0   0.00  
 205   19:00    6.0    69   82.0     6    117.5     7.2    999.0   0.00  
 205   19:10    1.0    68   83.1     4    119.0     6.6    999.0   0.00  
 205   19:20    0.0    68   84.4     0      0.0     0.0    999.0   0.00  
 205   19:30    0.0    68   84.0     0      0.0     0.0    999.0   0.00  
 205   19:40    0.0    68   81.9     1    116.6     4.8    999.0   0.00  
 205   19:50    0.0    68   78.1     8    119.3     9.6    999.0   0.00  
 205   20:00    0.0    68   75.4     1    129.7     6.0    999.0   0.00  
 205   20:10    0.0    68   68.4     0      0.0     0.0    999.0   0.00  
 205   20:20    0.0    69   65.0     1    130.8     4.8    999.0   0.00  
 205   20:30    0.0    70   62.2     2    131.4     6.6    999.0   0.00  
 205   20:40    0.0    71   57.3     0    145.0     3.6    999.0   0.00  
 205   20:50    0.0    71   56.0     0      0.0     0.0    999.0   0.00  
 205   21:00    0.0    72   49.2     0      0.0     0.0    999.0   0.00  
 205   21:10    0.0    73   45.4     2    162.1     6.6    999.0   0.00  
 205   21:20    0.0    74   40.7     4    155.4     8.4    999.0   0.00  
 205   21:30    0.0    74   42.0     4    151.0     7.2    999.0   0.00  
 205   21:40    0.0    74   38.8     5    160.2     7.2    999.0   0.00  
 205   21:50    0.0    74   37.7     4    148.9     6.0    999.0   0.00  
 205   22:00    0.0    73   43.6     3    149.8     5.4    999.0   0.00  
 205   22:10    0.0    70   57.3     5    125.3     6.6    999.0   0.00  
 205   22:20    0.0    68   64.7     6    129.6     8.4    999.0   0.00  
 205   22:30    0.0    68   62.8     7    130.3     9.0    999.0   0.00  
 205   22:40    0.0    68   59.1     5    133.0     7.8    999.0   0.00  
 205   22:50    0.0    71   47.9     4    155.2     5.4    999.0   0.00  
 205   23:00    0.0    71   46.0     5    153.7     7.8    999.0   0.00  
 205   23:10    0.0    71   49.2     6    140.2     9.6    999.0   0.00  
 205   23:20    0.0    71   48.8     5    129.8     9.6    999.0   0.00  
 205   23:30    0.0    68   61.6     4    117.4     6.0    999.0   0.00  
 205   23:40    0.0    67   63.8     6    123.7     7.2    999.0   0.00  
 205   23:50    0.0    72   43.0     8    137.0    11.3    999.0   0.00  
 206    0:00    0.0    72   40.5     8    142.3    11.3    999.0   0.00  
 206    0:10    0.0    72   41.8     9    150.6    14.9    999.0   0.00  
 206    0:20    0.0    72   42.7     8    144.5    16.7    999.0   0.00  
 206    0:30    0.0    72   42.7    11    153.3    14.9    999.0   0.00  
 206    0:40    0.0    72   43.2    11    156.7    17.9    999.0   0.00  
 206    0:50    0.0    72   43.1    12    158.6    17.9    999.0   0.00  
 206    1:00    0.0    73   40.0    11    154.1    16.7    999.0   0.00  
 206    1:10    0.0    73   40.9    11    157.2    14.9    999.0   0.00  
 206    1:20    0.0    72   42.3    10    144.8    15.5    999.0   0.00  
 206    1:30    0.0    72   43.5     5    126.3    11.3    999.0   0.00  
 206    1:40    0.0    72   43.1     5    124.9     9.6    999.0   0.00  
 206    1:50    0.0    72   44.7     6    140.4    14.9    999.0   0.00  
 206    2:00    0.0    73   40.7    13    158.1    20.9    999.0   0.00  
 206    2:10    0.0    74   37.4     7    132.4    12.5    999.0   0.00  
 206    2:20    0.0    74   38.5     9    137.4    18.5    999.0   0.00  
 206    2:30    0.0    74   37.5     8    140.9    15.5    999.0   0.00  
 206    2:40    0.0    75   34.0     9    130.6    17.9    999.0   0.00  
 206    2:50    0.0    76   30.7     9    131.0    21.5    999.0   0.00  
 206    3:00    0.0    76   32.5     6    113.3    12.5    999.0   0.00  
 206    3:10    0.0    74   36.2    10    117.1    14.9    999.0   0.00  
 206    3:20    0.0    74   34.2    11    130.2    21.5    999.0   0.00  
 206    3:30    0.0    74   35.4    12    122.1    16.1    999.0   0.00  
 206    3:40    0.0    74   35.0    11    117.1    17.9    999.0   0.00  
 206    3:50    0.0    74   36.2     9    119.9    14.3    999.0   0.00  
 206    4:00    0.0    73   39.5     7    126.0    13.7    999.0   0.00  
 206    4:10    0.0    73   39.5     7    130.9    11.9    999.0   0.00  
 206    4:20    0.0    73   42.7     5    124.2    10.8    999.0   0.00  
 206    4:30    0.0    72   43.2     6    130.2    11.3    999.0   0.00  
 206    4:40    0.0    72   42.5     7    123.3    10.8    999.0   0.00  
 206    4:50    0.0    72   42.2     7    124.0    11.9    999.0   0.00  
 206    5:00    0.0    73   41.2     7    120.5    11.3    999.0   0.00  
 206    5:10    5.0    73   40.2     7    115.7    12.5    999.0   0.00  
 206    5:20   10.0    73   42.5     5     91.9     9.0    999.0   0.00  
 206    5:30   16.0    73   43.4     3    136.6     5.4    999.0   0.00  
 206    5:40   23.0    73   42.7     4    165.4     7.2    999.0   0.00  
 206    5:50   33.0    74   41.4     5    131.8    11.9    999.0   0.00  
 206    6:00   48.0    74   42.1     7    121.1    12.5    999.0   0.00  
 206    6:10   66.0    75   43.1     5    114.5    10.2    999.0   0.00  
 206    6:20   90.0    74   47.3     4    126.9     7.8    999.0   0.00  
 206    6:30  112.0    74   50.4     4     78.9     9.0    999.0   0.00  
 206    6:40  141.0    73   57.1     5    110.5    10.2    999.0   0.00  
 206    6:50  170.0    74   56.2     9    115.2    14.3    999.0   0.00  
 206    7:00  210.0    74   55.9    10    116.0    14.3    999.0   0.00  
 206    7:10  235.0    73   60.7     8    107.7    13.1    999.0   0.00  
 206    7:20  269.0    73   64.6     7    104.8    11.3    999.0   0.00  
 206    7:30  303.0    74   62.6     6    113.7     9.6    999.0   0.00  
 206    7:40  335.0    75   58.7     6    105.7    11.9    999.0   0.00  
 206    7:50  369.0    76   60.3     7    109.7    13.7    999.0   0.00  
 206    8:00  397.0    76   56.5    11    117.0    19.1    999.0   0.00  
 206    8:10  429.0    77   53.7    11    114.3    17.9    999.0   0.00  
 206    8:20  454.0    78   53.3    10    111.6    17.3    999.0   0.00  
 206    8:30  482.0    78   49.9    10    100.2    16.7    999.0   0.00  
 206    8:40  510.0    78   52.2     9    108.5    15.5    999.0   0.00  
 206    8:50  536.0    77   56.9    10    103.5    14.3    999.0   0.00  
 206    9:00  563.0    77   54.5    11    110.1    20.9    999.0   0.00  
 206    9:10  589.0    77   55.3    12    107.4    17.9    999.0   0.00  
 206    9:20  610.0    77   56.0    12    116.5    19.7    999.0   0.00  
 206    9:30  632.0    78   53.3    11    104.2    20.9    999.0   0.00  
 206    9:40  655.0    79   49.3    12    112.9    19.1    999.0   0.00  
 206    9:50  678.0    79   49.2    12    110.5    19.1    999.0   0.00  
 206   10:00  698.0    79   51.9    11    105.2    19.7    999.0   0.00  
 206   10:10  717.0    79   50.8    11    112.3    19.7    999.0   0.00  
 206   10:20  735.0    80   49.3     9    108.0    16.7    999.0   0.00  
 206   10:30  745.0    81   48.3     8    107.6    13.1    999.0   0.00  
 206   10:40  759.0    81   49.7     8     95.4    14.3    999.0   0.00  
 206   10:50  776.0    80   51.5     7    106.4    13.7    999.0   0.00  
 206   11:00  788.0    78   58.0     7     86.8    10.2    999.0   0.00  
 206   11:10  794.0    78   60.4     7     95.5    11.9    999.0   0.00  
 206   11:20  802.0    75   67.1    10     93.0    13.7    999.0   0.00  
 206   11:30  810.0    75   67.9    10    101.4    12.5    999.0   0.00  
 206   11:40  816.0    75   67.8     8    106.3    13.1    999.0   0.00  
 206   11:50  823.0    75   66.7     7    101.4    11.9    999.0   0.00  
 206   12:00  827.0    73   70.6     8    105.1    13.7    999.0   0.00  
 206   12:10  830.0    74   68.9     7    111.1    10.8    999.0   0.00  
 206   12:20  830.0    75   65.3     5    133.1    10.8    999.0   0.00  
 206   12:30  832.0    76   62.5     4    145.0     8.4    999.0   0.00  
 206   12:40  828.0    79   57.7     5    180.5    11.9    999.0   0.00  
 206   12:50  820.0    80   56.0     4     36.7     7.2    999.0   0.00  
 206   13:00  815.0    80   57.4     4      0.6     7.8    999.0   0.00  
 206   13:10  810.0    78   60.4     4     12.4     7.8    999.0   0.00  
 206   13:20  802.0    77   62.9     5      4.4     8.4    999.0   0.00  
 206   13:30  795.0    76   64.4     5    358.8     8.4    999.0   0.00  
 206   13:40  789.0    75   66.8     7    352.3    10.2    999.0   0.00  
 206   13:50  775.0    74   68.6     7      5.6    11.3    999.0   0.00  
 206   14:00  761.0    73   71.0     7      5.7    10.2    999.0   0.00  
 206   14:10  743.0    73   69.5     8    356.6    13.1    999.0   0.00  
 206   14:20  725.0    72   71.4     6     15.5     9.0    999.0   0.00  
 206   14:30  707.0    75   66.1     4     30.5     7.8    999.0   0.00  
 206   14:40  688.0    76   63.9     4     31.0     7.2    999.0   0.00  
 206   14:50  670.0    76   66.2     4     30.4     6.6    999.0   0.00  
 206   15:00  650.0    77   63.0     5     56.6     7.8    999.0   0.00  
 206   15:10  627.0    76   65.1     6     72.5     8.4    999.0   0.00  
 206   15:20  603.0    75   67.8     4     56.8     6.6    999.0   0.00  
 206   15:30  579.0    75   70.5     4      1.1     6.6    999.0   0.00  
 206   15:40  552.0    76   67.9     3     13.4     5.4    999.0   0.00  
 206   15:50  524.0    77   66.0     3    349.4     4.8    999.0   0.00  
 206   16:00  499.0    79   60.9     2    317.7     4.2    999.0   0.00  

Return to Whitleys Peak graphs page.


Western Regional Climate Center,wrcc@dri.edu